Time;durP1;ratioP1;P1;durP2;ratioP2;P2;SDS_P1;SDS_P2;PMS_P1;PMS_P2;Temp;Humidity;BMP_temperature;BMP_pressure;BME280_temperature;BME280_humidity;BME280_pressure;Samples;Min_cycle;Max_cycle;Signal;HPM_P1;HPM_P2
2022/05/24 00:00:13;;;;;;;89.57;53.13;;;20.30;64.50;;;;;;4923002;28;90345;-40
2022/05/24 00:02:39;;;;;;;89.80;52.95;;;20.30;64.20;;;;;;4917039;28;90722;-42
2022/05/24 00:05:05;;;;;;;88.50;52.75;;;20.30;64.70;;;;;;4927825;28;89681;-40
2022/05/24 00:07:31;;;;;;;88.95;52.85;;;20.30;64.70;;;;;;4922466;28;90212;-40
2022/05/24 00:09:57;;;;;;;88.57;52.63;;;20.30;64.80;;;;;;4928270;28;90347;-40
2022/05/24 00:12:23;;;;;;;89.03;52.85;;;20.30;64.60;;;;;;4924044;28;91349;-39
2022/05/24 00:17:33;;;;;;;88.40;52.63;;;20.20;64.50;;;;;;4921343;28;90017;-39
2022/05/24 00:19:59;;;;;;;87.90;52.53;;;20.30;64.90;;;;;;4934796;28;90245;-39
2022/05/24 00:22:24;;;;;;;89.32;52.95;;;20.30;64.50;;;;;;4928103;28;90987;-40
2022/05/24 00:24:50;;;;;;;89.32;52.65;;;20.30;64.50;;;;;;4924595;28;90726;-43
2022/05/24 00:27:15;;;;;;;90.45;53.08;;;20.30;64.50;;;;;;4932124;28;90884;-40
2022/05/24 00:29:41;;;;;;;89.97;52.72;;;20.30;65.20;;;;;;4931688;28;88751;-40
2022/05/24 00:32:07;;;;;;;89.53;52.85;;;20.20;64.60;;;;;;4920149;28;90078;-40
2022/05/24 00:34:33;;;;;;;90.30;52.60;;;20.20;64.60;;;;;;4928865;28;90038;-40
2022/05/24 00:36:58;;;;;;;89.22;52.70;;;20.20;64.20;;;;;;4926652;28;92274;-39
2022/05/24 00:39:24;;;;;;;89.10;52.65;;;20.20;65.20;;;;;;4926974;28;90662;-39
2022/05/24 00:42:09;;;;;;;88.38;52.50;;;20.20;64.60;;;;;;4930124;28;89540;-40
2022/05/24 00:44:42;;;;;;;89.32;52.88;;;20.20;64.60;;;;;;4922116;28;96898;-39
2022/05/24 00:47:19;;;;;;;87.43;52.20;;;20.20;64.60;;;;;;4924146;28;91943;-39
2022/05/24 00:49:49;;;;;;;88.38;52.70;;;20.20;64.50;;;;;;4925118;28;90614;-43
2022/05/24 00:52:25;;;;;;;88.70;52.40;;;20.20;64.30;;;;;;4922694;28;91825;-39
2022/05/24 00:54:51;;;;;;;89.78;52.50;;;20.10;65.10;;;;;;4929471;28;91029;-40
2022/05/24 00:57:38;;;;;;;89.13;52.55;;;20.10;64.30;;;;;;4931853;28;90409;-39
2022/05/24 01:00:10;;;;;;;88.20;52.63;;;20.10;64.60;;;;;;4927216;28;90028;-40
2022/05/24 01:02:37;;;;;;;88.03;52.42;;;20.10;64.40;;;;;;4922284;28;93163;-42
2022/05/24 01:05:05;;;;;;;88.20;52.53;;;20.10;64.70;;;;;;4923248;28;89818;-39
2022/05/24 01:07:30;;;;;;;88.53;52.35;;;20.10;64.40;;;;;;4915072;28;90125;-40
2022/05/24 01:10:09;;;;;;;88.07;52.33;;;20.10;64.40;;;;;;4916161;28;90052;-39
2022/05/24 01:12:49;;;;;;;88.53;52.53;;;20.10;64.60;;;;;;4928226;28;89997;-43
2022/05/24 01:15:16;;;;;;;88.47;52.42;;;20.00;64.50;;;;;;4921282;28;90662;-39
2022/05/24 01:17:43;;;;;;;89.68;52.60;;;20.00;64.60;;;;;;4920936;28;90412;-39
2022/05/24 01:20:10;;;;;;;89.28;52.25;;;20.10;65.20;;;;;;4943608;28;91244;-39
2022/05/24 01:22:52;;;;;;;87.88;52.65;;;20.00;64.50;;;;;;4925252;28;90255;-40
2022/05/24 01:25:26;;;;;;;87.53;52.13;;;20.00;64.20;;;;;;4910039;28;90851;-40
2022/05/24 01:27:52;;;;;;;89.50;52.55;;;20.00;64.50;;;;;;4923590;28;91163;-40
2022/05/24 01:30:17;;;;;;;88.13;52.30;;;20.00;64.60;;;;;;4925262;28;90092;-41
2022/05/24 01:38:17;;;;;;;88.50;52.33;;;19.90;64.70;;;;;;4926449;28;91408;-41
2022/05/24 01:40:43;;;;;;;87.72;52.33;;;19.90;64.80;;;;;;4931394;28;92389;-39
2022/05/24 01:43:09;;;;;;;87.80;52.80;;;19.90;64.20;;;;;;4930873;28;92109;-42
2022/05/24 01:45:44;;;;;;;89.53;52.30;;;19.90;64.50;;;;;;4919053;28;92042;-40
2022/05/24 01:48:14;;;;;;;88.07;52.55;;;19.90;64.80;;;;;;4922873;28;90392;-41
2022/05/24 01:50:42;;;;;;;87.25;52.20;;;19.90;64.70;;;;;;4919603;28;90542;-39
2022/05/24 01:53:17;;;;;;;87.82;52.20;;;19.90;64.60;;;;;;4918589;28;92727;-40
2022/05/24 01:55:51;;;;;;;91.20;52.53;;;19.90;64.80;;;;;;4928899;28;90024;-41
2022/05/24 01:58:18;;;;;;;88.97;52.35;;;19.80;65.00;;;;;;4921120;28;91983;-41
2022/05/24 02:00:49;;;;;;;88.65;52.38;;;19.80;65.00;;;;;;4922877;28;96707;-39
2022/05/24 02:03:14;;;;;;;88.97;52.63;;;19.80;64.80;;;;;;4921951;28;90007;-42
2022/05/24 02:05:42;;;;;;;87.93;52.15;;;19.80;65.40;;;;;;4933447;28;89556;-39
2022/05/24 02:08:10;;;;;;;87.63;52.38;;;19.80;64.60;;;;;;4918855;28;90788;-39
2022/05/24 02:10:45;;;;;;;88.57;52.03;;;19.80;65.00;;;;;;4927275;28;89944;-40
2022/05/24 02:13:13;;;;;;;90.18;52.55;;;19.80;65.00;;;;;;4931571;28;89570;-40
2022/05/24 02:15:44;;;;;;;87.47;52.00;;;19.70;64.80;;;;;;4917423;28;90452;-40
2022/05/24 02:18:19;;;;;;;88.07;52.42;;;19.70;65.00;;;;;;4921238;28;92968;-42
2022/05/24 02:20:46;;;;;;;88.63;52.20;;;19.70;64.90;;;;;;4917026;28;93722;-39
2022/05/24 02:23:14;;;;;;;88.28;52.38;;;19.70;64.70;;;;;;4919407;28;90667;-39
2022/05/24 02:25:51;;;;;;;87.50;52.30;;;19.70;65.00;;;;;;4930716;28;89517;-40
2022/05/24 02:28:19;;;;;;;87.88;52.25;;;19.70;65.00;;;;;;4928060;28;91338;-40
2022/05/24 02:30:51;;;;;;;87.45;51.88;;;19.70;65.60;;;;;;4922609;28;90388;-41
2022/05/24 02:33:18;;;;;;;88.22;52.30;;;19.70;64.70;;;;;;4931840;28;89900;-42
2022/05/24 02:35:44;;;;;;;88.22;52.22;;;19.70;64.70;;;;;;4929956;28;88793;-39
2022/05/24 02:38:09;;;;;;;87.47;51.88;;;19.70;64.60;;;;;;4932542;28;90647;-40
2022/05/24 02:43:20;;;;;;;87.80;52.08;;;19.60;65.00;;;;;;4928824;28;90995;-39
2022/05/24 02:45:46;;;;;;;88.57;52.05;;;19.70;65.00;;;;;;4919459;28;89937;-39
2022/05/24 02:48:12;;;;;;;87.25;52.05;;;19.60;64.70;;;;;;4927846;28;92217;-40
2022/05/24 02:50:37;;;;;;;87.95;52.30;;;19.60;64.80;;;;;;4923871;28;90180;-40
2022/05/24 02:53:03;;;;;;;87.10;52.00;;;19.60;65.10;;;;;;4929174;28;90392;-40
2022/05/24 02:55:30;;;;;;;88.18;52.22;;;19.60;64.80;;;;;;4920019;28;90024;-41
2022/05/24 02:57:56;;;;;;;87.15;52.25;;;19.60;65.00;;;;;;4918252;28;90273;-42
2022/05/24 03:00:23;;;;;;;87.85;52.05;;;19.60;64.90;;;;;;4919540;28;89974;-41
2022/05/24 03:02:50;;;;;;;87.75;52.15;;;19.60;64.90;;;;;;4923493;28;90356;-39
2022/05/24 03:05:17;;;;;;;87.32;52.20;;;19.60;64.90;;;;;;4928824;28;92217;-40
2022/05/24 03:10:28;;;;;;;86.57;51.95;;;19.60;64.80;;;;;;4926731;28;91310;-39
2022/05/24 03:15:40;;;;;;;86.78;51.83;;;19.60;65.00;;;;;;4924944;28;89553;-39
2022/05/24 03:18:07;;;;;;;87.57;52.08;;;19.60;64.90;;;;;;4928923;28;90056;-40
2022/05/24 03:20:33;;;;;;;86.72;51.97;;;19.60;64.90;;;;;;4929722;28;90907;-40
2022/05/24 03:22:59;;;;;;;86.63;52.03;;;19.60;65.00;;;;;;4922970;28;90771;-42
2022/05/24 03:25:25;;;;;;;86.57;52.10;;;19.60;64.80;;;;;;4927385;28;89410;-39
2022/05/24 03:27:50;;;;;;;88.50;52.28;;;19.60;65.10;;;;;;4939125;28;91824;-41
2022/05/24 03:30:18;;;;;;;87.07;52.13;;;19.60;65.00;;;;;;4930651;28;89839;-39
2022/05/24 03:32:43;;;;;;;86.45;51.85;;;19.50;65.50;;;;;;4927355;28;91681;-39
2022/05/24 03:35:12;;;;;;;86.70;52.13;;;19.50;65.10;;;;;;4922332;28;91463;-39
2022/05/24 03:37:38;;;;;;;86.65;52.25;;;19.50;65.00;;;;;;4927438;28;90283;-42
2022/05/24 03:40:05;;;;;;;88.57;51.95;;;19.50;64.70;;;;;;4919837;28;90441;-39
2022/05/24 03:42:31;;;;;;;87.95;52.03;;;19.50;65.00;;;;;;4927389;28;93227;-41
2022/05/24 03:44:57;;;;;;;86.97;52.28;;;19.50;64.60;;;;;;4924866;28;91082;-39
2022/05/24 03:47:22;;;;;;;87.32;52.30;;;19.40;64.90;;;;;;4925261;28;90309;-42
2022/05/24 03:49:48;;;;;;;88.47;51.95;;;19.40;65.30;;;;;;4923063;28;89927;-40
2022/05/24 03:52:14;;;;;;;86.82;51.92;;;19.50;65.00;;;;;;4929775;28;90055;-39
2022/05/24 03:54:39;;;;;;;86.53;51.95;;;19.40;64.80;;;;;;4914416;28;91412;-40
2022/05/24 03:59:49;;;;;;;87.00;52.00;;;19.40;64.80;;;;;;4926458;28;91007;-39
2022/05/24 04:02:15;;;;;;;87.35;52.00;;;19.40;64.90;;;;;;4923222;28;92508;-39
2022/05/24 04:04:40;;;;;;;86.95;52.10;;;19.40;65.00;;;;;;4926059;28;90242;-42
2022/05/24 04:07:06;;;;;;;86.72;51.92;;;19.40;64.70;;;;;;4929979;28;89952;-39
2022/05/24 04:09:33;;;;;;;88.05;51.85;;;19.40;64.90;;;;;;4925530;28;90418;-39
2022/05/24 04:11:59;;;;;;;87.43;52.10;;;19.40;64.80;;;;;;4916693;28;92101;-40
2022/05/24 04:14:24;;;;;;;87.97;52.25;;;19.40;65.20;;;;;;4924103;28;89500;-39
2022/05/24 04:16:52;;;;;;;86.78;51.95;;;19.40;65.00;;;;;;4914060;28;90450;-39
2022/05/24 04:19:17;;;;;;;86.68;52.03;;;19.40;64.70;;;;;;4910123;28;90585;-39
2022/05/24 04:21:43;;;;;;;86.85;52.05;;;19.40;64.80;;;;;;4922172;28;92365;-41
2022/05/24 04:24:09;;;;;;;87.38;51.95;;;19.40;64.90;;;;;;4905453;28;91196;-40
2022/05/24 04:26:34;;;;;;;86.93;52.08;;;19.40;64.80;;;;;;4917325;28;91523;-39
2022/05/24 04:29:00;;;;;;;86.63;51.80;;;19.40;65.10;;;;;;4918759;28;91448;-41
2022/05/24 04:31:25;;;;;;;86.88;51.90;;;19.40;64.80;;;;;;4912726;28;90024;-39
2022/05/24 04:33:51;;;;;;;87.22;51.90;;;19.40;65.00;;;;;;4922353;28;91286;-39
2022/05/24 04:36:17;;;;;;;86.72;52.13;;;19.40;65.10;;;;;;4923311;28;90703;-39
2022/05/24 04:38:42;;;;;;;87.05;52.22;;;19.40;64.80;;;;;;4918891;28;91743;-39
2022/05/24 04:43:53;;;;;;;86.30;52.03;;;19.40;64.40;;;;;;4913866;28;91463;-41
2022/05/24 04:46:19;;;;;;;87.70;52.15;;;19.40;64.60;;;;;;4914960;28;92087;-41
2022/05/24 04:48:44;;;;;;;86.75;51.88;;;19.50;64.50;;;;;;4913570;28;91279;-42
2022/05/24 04:51:10;;;;;;;86.10;51.70;;;19.50;64.40;;;;;;4907685;28;90536;-39
2022/05/24 04:53:36;;;;;;;87.05;52.13;;;19.50;64.60;;;;;;4912121;28;90640;-42
2022/05/24 04:56:02;;;;;;;88.22;52.03;;;19.50;64.20;;;;;;4916219;28;91822;-48
2022/05/24 04:58:28;;;;;;;87.63;51.95;;;19.40;64.60;;;;;;4923902;28;90664;-39
2022/05/24 05:00:53;;;;;;;86.47;52.05;;;19.40;64.40;;;;;;4923431;28;91475;-42
2022/05/24 05:03:21;;;;;;;86.35;52.00;;;19.40;64.50;;;;;;4917038;28;93333;-39
2022/05/24 05:05:48;;;;;;;86.57;51.88;;;19.40;64.60;;;;;;4919859;28;95791;-39
2022/05/24 05:08:14;;;;;;;86.07;51.92;;;19.40;64.30;;;;;;4924309;28;90746;-39
2022/05/24 05:10:40;;;;;;;86.45;51.83;;;19.40;64.50;;;;;;4908420;28;91728;-41
2022/05/24 05:13:07;;;;;;;87.50;51.92;;;19.50;64.40;;;;;;4925182;28;90168;-39
2022/05/24 05:15:37;;;;;;;88.00;52.05;;;19.50;64.20;;;;;;4926406;28;90113;-39
2022/05/24 05:18:09;;;;;;;88.43;52.80;;;19.60;64.40;;;;;;4917751;28;90447;-40
2022/05/24 05:20:39;;;;;;;88.28;52.33;;;19.60;64.00;;;;;;4903939;28;91210;-40
2022/05/24 05:23:06;;;;;;;90.88;52.65;;;19.60;64.20;;;;;;4923845;28;90100;-39
2022/05/24 05:25:32;;;;;;;91.22;52.70;;;19.60;64.10;;;;;;4918976;28;90059;-39
2022/05/24 05:27:58;;;;;;;92.85;52.90;;;19.50;64.00;;;;;;4925746;28;90332;-40
2022/05/24 05:33:08;;;;;;;90.95;52.92;;;19.50;63.80;;;;;;4928524;28;90189;-39
2022/05/24 05:35:34;;;;;;;89.68;52.92;;;19.50;63.80;;;;;;4930106;28;90856;-40
2022/05/24 05:37:59;;;;;;;92.13;53.17;;;19.40;64.10;;;;;;4929530;28;90937;-42
2022/05/24 05:40:25;;;;;;;91.45;53.17;;;19.40;63.90;;;;;;4933021;28;91073;-41
2022/05/24 05:42:51;;;;;;;93.97;53.47;;;19.40;64.20;;;;;;4924831;28;91336;-39
2022/05/24 05:45:16;;;;;;;90.75;53.33;;;19.50;64.20;;;;;;4925750;28;90680;-39
2022/05/24 05:47:42;;;;;;;90.75;53.25;;;19.50;63.90;;;;;;4922164;28;92320;-39
2022/05/24 05:50:08;;;;;;;91.10;53.60;;;19.50;63.80;;;;;;4923309;28;89974;-39
2022/05/24 05:52:34;;;;;;;89.88;53.25;;;19.50;63.70;;;;;;4916830;28;89231;-39
2022/05/24 05:55:00;;;;;;;94.90;53.72;;;19.50;63.80;;;;;;4926684;28;93472;-41
2022/05/24 05:57:25;;;;;;;89.05;52.85;;;19.60;63.90;;;;;;4932862;28;90769;-41
2022/05/24 05:59:54;;;;;;;91.82;53.40;;;19.60;63.70;;;;;;4930115;28;90966;-40
2022/05/24 06:02:20;;;;;;;89.93;53.13;;;19.60;63.70;;;;;;4932551;28;94458;-39
2022/05/24 06:04:46;;;;;;;89.55;52.90;;;19.60;63.60;;;;;;4930261;28;90074;-38
2022/05/24 06:07:11;;;;;;;90.90;53.25;;;19.60;63.40;;;;;;4927472;28;90795;-42
2022/05/24 06:09:37;;;;;;;91.18;53.50;;;19.60;63.50;;;;;;4928159;28;95372;-39
2022/05/24 06:12:04;;;;;;;89.72;53.08;;;19.60;63.40;;;;;;4931016;28;89875;-41
2022/05/24 06:14:30;;;;;;;93.07;53.55;;;19.60;63.10;;;;;;4935023;28;89586;-39
2022/05/24 06:16:56;;;;;;;92.85;53.40;;;19.70;63.10;;;;;;4915414;28;89978;-41
2022/05/24 06:19:21;;;;;;;90.50;53.03;;;19.80;62.70;;;;;;4919342;28;90419;-40
2022/05/24 06:21:47;;;;;;;91.80;53.67;;;19.90;62.30;;;;;;4928498;28;89645;-41
2022/05/24 06:24:14;;;;;;;91.80;53.80;;;19.90;62.10;;;;;;4925281;28;91519;-39
2022/05/24 06:26:40;;;;;;;93.68;53.67;;;20.00;61.90;;;;;;4931445;28;90791;-40
2022/05/24 06:29:06;;;;;;;93.00;53.90;;;20.00;61.90;;;;;;4924779;28;89957;-39
2022/05/24 06:31:32;;;;;;;91.30;53.35;;;20.00;61.40;;;;;;4927347;28;90053;-39
2022/05/24 06:33:58;;;;;;;93.13;53.65;;;20.10;61.50;;;;;;4933553;28;90993;-39
2022/05/24 06:36:24;;;;;;;91.53;53.35;;;20.10;61.30;;;;;;4929742;28;89884;-40
2022/05/24 06:38:49;;;;;;;92.28;53.65;;;20.10;61.40;;;;;;4926969;28;92924;-39
2022/05/24 06:41:15;;;;;;;91.00;53.60;;;20.10;61.30;;;;;;4934034;28;93360;-39
2022/05/24 06:43:41;;;;;;;91.35;53.63;;;20.10;61.20;;;;;;4932865;28;90078;-40
2022/05/24 06:46:09;;;;;;;92.55;53.33;;;20.10;61.10;;;;;;4925013;28;90074;-40
2022/05/24 06:48:40;;;;;;;92.32;53.40;;;20.10;61.40;;;;;;4926326;28;91347;-42
2022/05/24 06:51:14;;;;;;;93.10;53.53;;;20.10;61.40;;;;;;4927337;28;90293;-39
2022/05/24 06:53:41;;;;;;;91.95;53.55;;;20.10;61.40;;;;;;4928540;28;90632;-40
2022/05/24 06:56:08;;;;;;;92.57;53.38;;;20.10;61.50;;;;;;4934309;28;89820;-41
2022/05/24 06:58:34;;;;;;;90.40;53.25;;;20.00;61.50;;;;;;4932996;28;89776;-39
2022/05/24 07:03:45;;;;;;;91.75;53.47;;;20.10;61.40;;;;;;4924814;28;89844;-39
2022/05/24 07:06:12;;;;;;;91.03;53.42;;;20.10;61.10;;;;;;4926968;28;94512;-45
2022/05/24 07:08:39;;;;;;;90.00;53.45;;;20.10;61.40;;;;;;4928454;28;90641;-40
2022/05/24 07:11:05;;;;;;;92.97;53.83;;;20.10;61.00;;;;;;4934943;28;89989;-41
2022/05/24 07:13:31;;;;;;;91.15;53.47;;;20.00;61.30;;;;;;4928370;28;91021;-40
2022/05/24 07:15:56;;;;;;;90.72;52.95;;;20.00;61.30;;;;;;4930211;28;90287;-39
2022/05/24 07:18:22;;;;;;;90.82;53.47;;;20.20;61.10;;;;;;4919551;28;94237;-39
2022/05/24 07:20:48;;;;;;;92.65;53.30;;;20.20;60.90;;;;;;4919110;28;90095;-39
2022/05/24 07:23:20;;;;;;;91.10;53.60;;;20.30;60.60;;;;;;4934558;28;89451;-39
2022/05/24 07:25:47;;;;;;;90.38;53.38;;;20.30;60.90;;;;;;4926301;28;92626;-40
2022/05/24 07:28:18;;;;;;;92.70;53.35;;;20.30;60.60;;;;;;4925390;28;90122;-39
2022/05/24 07:30:46;;;;;;;90.60;53.70;;;20.30;60.60;;;;;;4935697;28;89155;-39
2022/05/24 07:33:12;;;;;;;92.35;53.67;;;20.40;60.50;;;;;;4927157;28;92753;-39
2022/05/24 07:35:39;;;;;;;92.25;53.47;;;20.40;60.30;;;;;;4927529;28;90532;-39
2022/05/24 07:38:12;;;;;;;92.28;53.63;;;20.40;60.20;;;;;;4931782;28;90657;-40
2022/05/24 07:46:12;;;;;;;90.20;53.45;;;20.30;60.30;;;;;;4928605;28;91235;-40
2022/05/24 07:48:37;;;;;;;89.95;53.33;;;20.30;60.90;;;;;;4919795;28;94078;-40
2022/05/24 07:51:03;;;;;;;91.15;53.63;;;20.40;60.20;;;;;;4922587;28;92691;-40
2022/05/24 07:53:29;;;;;;;90.05;53.58;;;20.40;59.80;;;;;;4928720;28;91207;-39
2022/05/24 07:55:56;;;;;;;90.80;53.63;;;20.50;59.70;;;;;;4937909;28;89807;-42
2022/05/24 07:58:22;;;;;;;91.97;53.85;;;20.50;59.50;;;;;;4927200;28;89801;-39
2022/05/24 08:00:47;;;;;;;91.72;53.92;;;20.60;59.50;;;;;;4925302;28;89546;-39
2022/05/24 08:03:14;;;;;;;92.53;54.05;;;20.70;58.80;;;;;;4930526;28;90737;-40
2022/05/24 08:05:40;;;;;;;89.95;53.45;;;20.70;59.30;;;;;;4930233;28;89880;-40
2022/05/24 08:08:08;;;;;;;91.38;53.58;;;20.70;59.00;;;;;;4932880;28;89922;-40
2022/05/24 08:10:35;;;;;;;91.40;53.55;;;20.60;59.20;;;;;;4927573;28;90608;-40
2022/05/24 08:13:14;;;;;;;90.32;53.78;;;20.50;59.60;;;;;;4926879;28;89931;-39
2022/05/24 08:15:41;;;;;;;90.40;53.65;;;20.50;59.40;;;;;;4927055;28;90057;-42
2022/05/24 08:18:07;;;;;;;90.57;53.38;;;20.50;59.10;;;;;;4926602;28;90234;-39
2022/05/24 08:20:34;;;;;;;92.63;53.88;;;20.40;59.70;;;;;;4921431;28;90624;-38
2022/05/24 08:23:00;;;;;;;90.80;53.38;;;20.40;59.60;;;;;;4936450;28;91082;-41
2022/05/24 08:25:28;;;;;;;90.88;53.35;;;20.40;59.60;;;;;;4932549;28;90125;-42
2022/05/24 08:27:54;;;;;;;90.70;53.40;;;20.40;59.60;;;;;;4928380;28;91178;-41
2022/05/24 08:30:20;;;;;;;90.38;53.22;;;20.40;59.80;;;;;;4933278;28;89676;-39
2022/05/24 08:32:49;;;;;;;91.20;53.88;;;20.50;59.60;;;;;;4931678;28;90921;-40
2022/05/24 08:35:17;;;;;;;92.32;53.72;;;20.60;59.20;;;;;;4931695;28;89958;-40
2022/05/24 08:37:44;;;;;;;91.25;53.53;;;20.70;58.70;;;;;;4926655;28;89677;-42
2022/05/24 08:40:13;;;;;;;92.45;53.70;;;20.70;58.70;;;;;;4933256;28;89658;-40
2022/05/24 08:43:05;;;;;;;90.95;53.25;;;20.70;58.70;;;;;;4935630;28;90073;-42
2022/05/24 08:48:34;;;;;;;91.38;53.55;;;20.70;58.80;;;;;;4919364;28;90324;-40
2022/05/24 08:51:02;;;;;;;91.85;53.60;;;20.80;58.60;;;;;;4936856;28;89769;-39
2022/05/24 08:53:39;;;;;;;90.30;53.70;;;20.90;58.30;;;;;;4926529;28;91628;-42
2022/05/24 08:56:07;;;;;;;90.13;53.42;;;21.00;57.90;;;;;;4928469;28;90879;-40
2022/05/24 08:58:39;;;;;;;92.03;53.55;;;21.00;58.00;;;;;;4928114;28;89955;-39
2022/05/24 09:01:14;;;;;;;91.00;53.20;;;20.90;58.30;;;;;;4930115;28;90294;-41
2022/05/24 09:03:39;;;;;;;90.70;53.38;;;20.80;58.30;;;;;;4932625;28;90634;-39
2022/05/24 09:06:30;;;;;;;90.75;53.42;;;20.70;58.60;;;;;;4934207;28;90531;-42
2022/05/24 09:09:06;;;;;;;92.63;53.55;;;20.70;58.90;;;;;;4926869;28;89739;-38
2022/05/24 09:11:56;;;;;;;91.10;53.75;;;20.60;58.80;;;;;;4930433;28;89142;-39
2022/05/24 09:14:32;;;;;;;89.22;52.88;;;20.60;59.20;;;;;;4939079;28;91391;-40
2022/05/24 09:17:25;;;;;;;90.32;53.13;;;20.50;59.10;;;;;;4931620;28;90555;-40
2022/05/24 09:19:51;;;;;;;92.05;53.05;;;20.50;59.10;;;;;;4923245;28;91115;-39
2022/05/24 09:22:21;;;;;;;91.63;53.45;;;20.60;58.80;;;;;;4936400;28;89755;-40
2022/05/24 09:24:52;;;;;;;90.68;53.53;;;20.60;58.90;;;;;;4932766;28;89987;-39
2022/05/24 09:27:22;;;;;;;;;;;20.70;58.90;;;;;;4938002;28;90025;-39
2022/05/24 09:30:29;;;;;;;91.22;53.80;;;20.90;58.60;;;;;;4933690;28;89594;-40
2022/05/24 09:33:32;;;;;;;90.20;53.30;;;21.00;57.70;;;;;;4931680;28;90047;-39
2022/05/24 09:36:00;;;;;;;90.38;53.20;;;21.00;57.70;;;;;;4931594;28;89941;-41
2022/05/24 09:38:39;;;;;;;89.95;53.05;;;20.90;58.20;;;;;;4935983;28;90541;-39
2022/05/24 09:41:16;;;;;;;89.85;53.45;;;20.80;58.10;;;;;;4936883;28;90094;-39
2022/05/24 09:43:42;;;;;;;89.15;53.08;;;20.70;58.20;;;;;;4936113;28;91384;-39
2022/05/24 09:46:22;;;;;;;89.85;53.42;;;20.70;58.30;;;;;;4931851;28;90876;-40
2022/05/24 09:49:25;;;;;;;89.75;53.08;;;20.70;58.50;;;;;;4925375;28;90386;-39
2022/05/24 09:51:56;;;;;;;88.95;52.88;;;20.70;58.30;;;;;;4928499;28;90004;-41
2022/05/24 09:54:27;;;;;;;89.93;52.90;;;20.60;58.40;;;;;;4934856;28;89975;-39
2022/05/24 09:57:10;;;;;;;89.07;53.03;;;20.60;58.80;;;;;;4934947;28;90446;-40
2022/05/24 09:59:39;;;;;;;89.53;53.28;;;20.70;58.70;;;;;;4932967;28;90344;-39
2022/05/24 10:02:25;;;;;;;90.13;53.35;;;20.70;58.60;;;;;;4931202;28;90177;-39
2022/05/24 10:04:51;;;;;;;88.90;53.22;;;20.70;58.80;;;;;;4930069;28;88890;-41
2022/05/24 10:07:27;;;;;;;90.10;53.25;;;20.70;58.80;;;;;;4933511;28;91493;-41
2022/05/24 10:10:16;;;;;;;89.88;52.95;;;20.60;58.90;;;;;;4923800;28;89983;-41
2022/05/24 10:12:41;;;;;;;89.88;52.92;;;20.60;58.90;;;;;;4923164;28;93160;-39
2022/05/24 10:15:21;;;;;;;89.10;53.20;;;20.50;59.10;;;;;;4928730;28;89983;-40
2022/05/24 10:18:24;;;;;;;89.32;53.13;;;20.50;59.10;;;;;;4924939;28;91435;-39
2022/05/24 10:21:11;;;;;;;89.13;52.95;;;20.50;59.10;;;;;;4918999;28;92156;-39
2022/05/24 10:23:43;;;;;;;89.18;53.13;;;20.50;59.40;;;;;;4926129;28;89876;-39
2022/05/24 10:26:30;;;;;;;89.50;53.13;;;20.50;59.40;;;;;;4922658;28;90219;-39
2022/05/24 10:29:04;;;;;;;89.47;53.03;;;20.50;59.40;;;;;;4927656;28;90990;-39
2022/05/24 10:38:17;;;;;;;90.43;53.42;;;20.60;59.10;;;;;;4930136;28;90079;-39
2022/05/24 10:38:20;;;;;;;89.05;53.20;;;20.90;58.30;;;;;;4951476;28;90101;-40
2022/05/24 10:41:10;;;;;;;90.22;53.15;;;21.00;58.00;;;;;;4929571;28;90854;-40
2022/05/24 10:43:56;;;;;;;91.35;53.47;;;21.00;57.80;;;;;;4926565;28;90959;-39
2022/05/24 10:46:43;;;;;;;90.50;53.55;;;21.10;57.50;;;;;;4931391;28;90118;-40
2022/05/24 10:49:17;;;;;;;89.97;53.60;;;21.30;57.30;;;;;;4914500;28;91124;-39
2022/05/24 10:51:52;;;;;;;90.80;53.55;;;21.30;57.10;;;;;;4930007;28;91331;-41
2022/05/24 10:54:29;;;;;;;89.60;53.28;;;21.20;57.30;;;;;;4929010;28;90709;-40
2022/05/24 10:57:04;;;;;;;91.00;53.60;;;21.10;57.40;;;;;;4933639;28;89991;-39
2022/05/24 10:59:50;;;;;;;90.25;53.22;;;21.00;57.70;;;;;;4934025;28;89281;-40
2022/05/24 11:02:35;;;;;;;90.45;53.67;;;21.10;57.80;;;;;;4936086;28;91730;-41
2022/05/24 11:05:23;;;;;;;90.53;53.55;;;21.30;57.00;;;;;;4935752;28;89473;-39
2022/05/24 11:07:58;;;;;;;92.15;53.85;;;21.40;57.50;;;;;;4933513;28;90471;-39
2022/05/24 11:10:30;;;;;;;90.72;53.50;;;21.50;56.50;;;;;;4924274;28;89491;-40
2022/05/24 11:13:08;;;;;;;91.28;53.70;;;21.70;56.20;;;;;;4936260;28;91057;-39
2022/05/24 11:15:40;;;;;;;92.10;53.75;;;21.60;56.20;;;;;;4912118;28;91044;-40
2022/05/24 11:18:21;;;;;;;91.20;53.70;;;21.70;56.40;;;;;;4919916;28;90090;-41
2022/05/24 11:21:00;;;;;;;92.65;53.90;;;21.70;56.20;;;;;;4922736;28;89750;-40
2022/05/24 11:23:35;;;;;;;92.85;53.72;;;21.80;55.90;;;;;;4933042;28;90435;-41
2022/05/24 11:26:13;;;;;;;91.95;53.88;;;21.70;56.50;;;;;;4921405;28;91550;-39
2022/05/24 11:28:47;;;;;;;91.18;53.78;;;21.80;55.80;;;;;;4929046;28;89846;-39
2022/05/24 11:31:22;;;;;;;90.53;53.33;;;21.70;56.70;;;;;;4936814;28;90469;-40
2022/05/24 11:33:48;;;;;;;90.25;53.17;;;21.50;56.00;;;;;;4936958;28;91168;-41
2022/05/24 11:36:32;;;;;;;91.32;53.28;;;21.40;56.80;;;;;;4930267;28;90777;-39
2022/05/24 11:39:22;;;;;;;90.28;53.00;;;21.30;56.90;;;;;;4935322;28;90859;-40
2022/05/24 11:41:48;;;;;;;89.60;53.20;;;21.20;57.30;;;;;;4933599;28;90152;-42
2022/05/24 11:44:34;;;;;;;90.43;53.13;;;21.20;57.10;;;;;;4931825;28;90164;-39
2022/05/24 11:47:00;;;;;;;89.78;53.20;;;21.20;57.30;;;;;;4927921;28;90061;-41
2022/05/24 11:49:28;;;;;;;90.75;53.13;;;21.20;57.70;;;;;;4920655;28;90222;-39
2022/05/24 11:51:55;;;;;;;89.78;53.15;;;21.10;57.80;;;;;;4924130;28;92873;-39
2022/05/24 11:54:24;;;;;;;88.95;52.92;;;21.00;58.00;;;;;;4931463;28;90226;-41
2022/05/24 11:57:03;;;;;;;89.78;53.13;;;21.00;57.90;;;;;;4935659;28;90096;-40
2022/05/24 11:59:40;;;;;;;90.40;53.10;;;21.00;58.20;;;;;;4930179;28;90476;-39
2022/05/24 12:02:22;;;;;;;89.93;53.10;;;21.00;58.20;;;;;;4937015;28;90382;-39
2022/05/24 12:08:01;;;;;;;89.53;52.97;;;21.20;57.70;;;;;;4938123;28;89592;-40
2022/05/24 12:10:52;;;;;;;89.90;53.22;;;21.30;57.30;;;;;;4932850;28;89856;-40
2022/05/24 12:13:29;;;;;;;90.55;53.20;;;21.40;57.00;;;;;;4934332;28;90354;-39
2022/05/24 12:15:57;;;;;;;90.53;53.13;;;21.40;56.90;;;;;;4936662;28;90388;-39
2022/05/24 12:18:54;;;;;;;91.63;53.92;;;21.50;57.00;;;;;;4934467;28;90194;-39
2022/05/24 12:21:48;;;;;;;90.88;53.78;;;21.60;56.70;;;;;;4927367;28;90685;-41
2022/05/24 12:24:29;;;;;;;90.55;53.45;;;21.70;56.20;;;;;;4935196;28;89931;-40
2022/05/24 12:27:17;;;;;;;90.68;53.50;;;21.80;56.00;;;;;;4937828;28;91592;-39
2022/05/24 12:29:47;;;;;;;91.45;53.72;;;21.90;55.80;;;;;;4928933;28;90017;-42
2022/05/24 12:32:16;;;;;;;90.90;53.63;;;21.90;55.80;;;;;;4932673;28;89861;-40
2022/05/24 12:34:42;;;;;;;91.32;53.85;;;22.00;55.70;;;;;;4932353;28;91081;-39
2022/05/24 12:37:30;;;;;;;91.10;53.60;;;21.90;55.60;;;;;;4932758;28;90779;-42
2022/05/24 12:40:09;;;;;;;90.90;53.50;;;21.90;55.70;;;;;;4926696;28;90004;-41
2022/05/24 12:42:42;;;;;;;91.72;53.50;;;21.80;55.90;;;;;;4931371;28;90038;-40
2022/05/24 12:45:08;;;;;;;91.13;53.72;;;21.80;56.20;;;;;;4939162;28;88934;-42
2022/05/24 12:47:34;;;;;;;91.63;53.63;;;21.80;56.10;;;;;;4936792;28;90042;-42
2022/05/24 12:50:00;;;;;;;91.15;53.83;;;21.80;56.00;;;;;;4936629;28;90556;-40
2022/05/24 12:52:29;;;;;;;91.20;53.70;;;21.90;55.90;;;;;;4932668;28;90633;-42
2022/05/24 12:54:57;;;;;;;92.90;54.28;;;22.00;56.00;;;;;;4931919;28;90899;-42
2022/05/24 12:57:35;;;;;;;92.18;54.15;;;22.10;55.40;;;;;;4936354;28;90110;-40
2022/05/24 13:00:12;;;;;;;91.78;53.92;;;22.30;55.00;;;;;;4932682;28;90416;-39
2022/05/24 13:02:38;;;;;;;93.18;54.22;;;22.30;54.70;;;;;;4930416;28;89921;-40
2022/05/24 13:05:24;;;;;;;93.03;54.00;;;22.30;54.80;;;;;;4934354;28;90026;-40
2022/05/24 13:07:55;;;;;;;92.60;54.03;;;22.30;54.50;;;;;;4937569;28;90283;-42
2022/05/24 13:10:21;;;;;;;;;;;22.40;54.70;;;;;;4924570;28;90368;-39
2022/05/24 13:12:54;;;;;;;91.95;53.75;;;22.40;54.60;;;;;;4929825;28;93703;-40
2022/05/24 13:15:44;;;;;;;91.93;53.47;;;22.30;54.30;;;;;;4927128;28;89871;-41
2022/05/24 13:18:16;;;;;;;91.82;53.60;;;22.20;54.60;;;;;;4931117;28;91256;-41
2022/05/24 13:20:49;;;;;;;91.53;53.55;;;22.10;54.80;;;;;;4920942;28;91534;-40
2022/05/24 13:23:15;;;;;;;92.25;53.35;;;22.00;55.40;;;;;;4934565;28;90143;-41
2022/05/24 13:25:57;;;;;;;91.07;53.60;;;21.90;56.00;;;;;;4923284;28;89849;-39
2022/05/24 13:28:31;;;;;;;91.18;53.63;;;22.00;55.60;;;;;;4931867;28;89710;-39